createdAt,value
2018-03-30T00:02:33.596Z,82.41
2018-03-30T00:05:37.130Z,82.13
2018-03-30T00:08:40.429Z,82.15
2018-03-30T00:11:43.680Z,82.50
2018-03-30T00:14:46.953Z,82.89
2018-03-30T00:17:50.273Z,82.63
2018-03-30T00:20:53.543Z,82.33
2018-03-30T00:23:56.809Z,82.12
2018-03-30T00:27:00.292Z,82.24
2018-03-30T00:30:05.741Z,82.16
2018-03-30T00:33:09.787Z,82.21
2018-03-30T00:36:13.085Z,81.82
2018-03-30T00:39:16.672Z,82.14
2018-03-30T00:42:19.931Z,82.56
2018-03-30T00:45:23.192Z,83.01
2018-03-30T00:48:26.461Z,82.74
2018-03-30T00:51:30.505Z,82.29
2018-03-30T00:54:36.882Z,82.30
2018-03-30T00:57:40.150Z,82.48
2018-03-30T01:00:43.463Z,82.51
2018-03-30T01:03:46.780Z,82.24
2018-03-30T01:06:50.955Z,82.62
2018-03-30T01:09:54.980Z,82.51
2018-03-30T01:12:58.642Z,82.37
2018-03-30T01:16:02.141Z,82.66
2018-03-30T01:19:05.557Z,82.33
2018-03-30T01:22:09.083Z,82.84
2018-03-30T01:25:12.351Z,83.38
2018-03-30T01:28:15.845Z,82.89
2018-03-30T01:31:19.131Z,83.06
2018-03-30T01:34:22.409Z,83.40
2018-03-30T01:37:26.444Z,83.60
2018-03-30T01:40:31.024Z,83.24
2018-03-30T01:43:34.321Z,82.75
2018-03-30T01:46:37.582Z,82.98
2018-03-30T01:49:41.604Z,82.53
2018-03-30T01:52:44.880Z,82.94
2018-03-30T01:55:48.149Z,84.01
2018-03-30T01:58:51.662Z,84.19
2018-03-30T02:01:54.927Z,83.92
2018-03-30T02:04:58.225Z,83.54
2018-03-30T02:08:01.490Z,83.57
2018-03-30T02:11:05.841Z,83.69
2018-03-30T02:14:09.343Z,83.24
2018-03-30T02:17:13.384Z,83.73
2018-03-30T02:20:16.763Z,83.68
2018-03-30T02:23:20.043Z,83.45
2018-03-30T02:26:24.086Z,83.24
2018-03-30T02:29:28.262Z,83.12
2018-03-30T02:32:31.553Z,83.26
2018-03-30T02:35:34.836Z,83.23
2018-03-30T02:38:38.106Z,83.36
2018-03-30T02:41:41.406Z,83.70
2018-03-30T02:44:44.669Z,83.43
2018-03-30T02:47:48.749Z,83.48
2018-03-30T02:50:52.050Z,83.26
2018-03-30T02:53:55.346Z,83.10
2018-03-30T02:56:58.632Z,83.36
2018-03-30T03:00:01.919Z,83.09
2018-03-30T03:03:05.191Z,83.21
2018-03-30T03:06:08.493Z,83.32
2018-03-30T03:09:11.806Z,83.53
2018-03-30T03:12:15.165Z,83.23
2018-03-30T03:15:18.456Z,83.16
2018-03-30T03:18:22.493Z,82.97
2018-03-30T03:21:25.774Z,82.66
2018-03-30T03:24:29.061Z,83.37
2018-03-30T03:27:33.088Z,82.90
2018-03-30T03:30:37.151Z,83.01
2018-03-30T03:33:40.450Z,82.51
2018-03-30T03:36:43.800Z,83.57
2018-03-30T03:39:48.004Z,83.24
2018-03-30T03:42:52.038Z,82.84
2018-03-30T03:45:55.335Z,82.43
2018-03-30T03:48:58.628Z,82.09
2018-03-30T03:52:02.662Z,82.52
2018-03-30T03:55:05.929Z,82.07
2018-03-30T03:58:10.071Z,82.02
2018-03-30T04:01:13.347Z,82.54
2018-03-30T04:04:17.379Z,82.72
2018-03-30T04:07:21.360Z,82.39
2018-03-30T04:10:24.630Z,82.57
2018-03-30T04:13:27.917Z,82.78
2018-03-30T04:16:31.189Z,83.21
2018-03-30T04:19:34.473Z,82.68
2018-03-30T04:22:38.595Z,82.57
2018-03-30T04:25:42.696Z,82.55
2018-03-30T04:28:46.841Z,82.06
2018-03-30T04:31:50.115Z,82.30
2018-03-30T04:34:54.150Z,82.71
2018-03-30T04:37:57.415Z,82.51
2018-03-30T04:41:00.712Z,82.38
2018-03-30T04:44:03.997Z,82.31
2018-03-30T04:47:07.280Z,82.12
2018-03-30T04:50:10.629Z,83.48
2018-03-30T04:53:14.654Z,83.10
2018-03-30T04:56:17.932Z,83.75
2018-03-30T04:59:21.966Z,83.64
2018-03-30T05:02:25.233Z,84.42
2018-03-30T05:05:29.262Z,85.29
2018-03-30T05:08:33.406Z,85.81
2018-03-30T05:11:36.686Z,85.18
2018-03-30T05:14:39.969Z,84.75
2018-03-30T05:17:44.001Z,84.69
2018-03-30T05:20:47.280Z,84.31
2018-03-30T05:23:51.307Z,84.04
2018-03-30T05:26:54.585Z,83.99
2018-03-30T05:29:58.176Z,83.57
2018-03-30T05:33:02.251Z,83.63
2018-03-30T05:36:05.529Z,83.31
2018-03-30T05:39:08.801Z,83.16
2018-03-30T05:42:12.842Z,82.59
2018-03-30T05:45:16.142Z,82.28
2018-03-30T05:48:19.437Z,82.07
2018-03-30T05:51:22.709Z,82.00
2018-03-30T05:54:26.783Z,81.98
2018-03-30T05:57:30.042Z,83.29
2018-03-30T06:00:33.437Z,82.72
2018-03-30T06:03:36.782Z,81.17
2018-03-30T06:06:40.208Z,79.96
2018-03-30T06:09:43.537Z,79.27
2018-03-30T06:12:47.143Z,78.84
2018-03-30T06:15:50.439Z,78.46
2018-03-30T06:18:54.040Z,78.10
2018-03-30T06:21:58.089Z,79.13
2018-03-30T06:25:01.356Z,78.75
2018-03-30T06:28:04.649Z,78.13
2018-03-30T06:31:08.955Z,78.89
2018-03-30T06:34:12.989Z,78.83
2018-03-30T06:37:17.038Z,78.88
2018-03-30T06:40:20.338Z,78.42
2018-03-30T06:43:23.668Z,78.14
2018-03-30T06:46:27.178Z,77.90
2018-03-30T06:49:33.274Z,77.28
2018-03-30T06:52:36.596Z,76.88
2018-03-30T06:55:39.889Z,76.49
2018-03-30T06:58:43.876Z,75.38
2018-03-30T07:01:47.153Z,73.93
2018-03-30T07:04:51.925Z,73.46
2018-03-30T07:07:55.402Z,73.12
2018-03-30T07:10:59.466Z,72.01
2018-03-30T07:14:03.014Z,72.22
2018-03-30T07:17:07.058Z,71.63
2018-03-30T07:20:10.320Z,71.52
2018-03-30T07:23:14.363Z,73.45
2018-03-30T07:26:17.650Z,72.84
2018-03-30T07:29:21.733Z,72.92
2018-03-30T07:32:25.088Z,73.28
2018-03-30T07:35:28.649Z,73.54
2018-03-30T07:38:32.254Z,73.94
2018-03-30T07:41:35.751Z,74.48
2018-03-30T07:44:39.057Z,74.05
2018-03-30T07:47:42.409Z,74.30
2018-03-30T07:50:45.705Z,74.61
2018-03-30T07:53:48.986Z,74.71
2018-03-30T07:56:52.272Z,73.86
2018-03-30T07:59:55.536Z,73.52
2018-03-30T08:02:58.862Z,72.89
2018-03-30T08:06:02.898Z,72.17
2018-03-30T08:09:06.394Z,72.13
2018-03-30T08:12:09.675Z,72.23
2018-03-30T08:15:13.741Z,73.76
2018-03-30T08:18:17.060Z,73.07
2018-03-30T08:21:20.330Z,72.61
2018-03-30T08:24:25.571Z,73.81
2018-03-30T08:27:29.039Z,72.70
2018-03-30T08:30:33.066Z,72.42
2018-03-30T08:33:36.343Z,71.49
2018-03-30T08:36:40.390Z,71.89
2018-03-30T08:39:43.650Z,70.11
2018-03-30T08:42:47.682Z,70.84
2018-03-30T08:45:50.980Z,70.49
2018-03-30T08:48:54.270Z,71.14
2018-03-30T08:51:58.327Z,70.72
2018-03-30T08:55:01.595Z,70.88
2018-03-30T08:58:05.033Z,70.44
2018-03-30T09:01:08.354Z,69.49
2018-03-30T09:04:12.418Z,68.76
2018-03-30T09:07:15.687Z,70.09
2018-03-30T09:10:19.704Z,69.25
2018-03-30T09:13:23.861Z,68.41
2018-03-30T09:16:27.318Z,66.91
2018-03-30T09:19:31.436Z,67.01
2018-03-30T09:22:35.461Z,68.18
2018-03-30T09:25:39.530Z,68.28
2018-03-30T09:28:42.850Z,69.70
2018-03-30T09:31:47.358Z,69.27
2018-03-30T09:34:50.761Z,69.11
2018-03-30T09:37:54.064Z,68.95
2018-03-30T09:40:57.358Z,67.66
2018-03-30T09:44:00.657Z,66.44
2018-03-30T09:47:03.975Z,66.01
2018-03-30T09:50:08.146Z,63.79
2018-03-30T09:53:11.682Z,61.63
2018-03-30T09:56:15.082Z,61.00
2018-03-30T09:59:18.363Z,62.28
2018-03-30T10:02:21.662Z,60.61
2018-03-30T10:05:24.949Z,61.29
2018-03-30T10:08:29.022Z,60.30
2018-03-30T10:11:33.059Z,60.44
2018-03-30T10:14:36.501Z,58.93
2018-03-30T10:17:39.783Z,59.27
2018-03-30T10:20:43.060Z,59.83
2018-03-30T10:23:46.375Z,59.49
2018-03-30T10:26:49.654Z,59.82
2018-03-30T10:29:53.209Z,59.18
2018-03-30T10:32:56.483Z,59.45
2018-03-30T10:36:20.101Z,59.23
2018-03-30T10:39:23.609Z,56.31
2018-03-30T10:42:27.715Z,55.91
2018-03-30T10:45:31.541Z,55.43
2018-03-30T10:48:34.859Z,53.73
2018-03-30T10:51:38.748Z,52.06
2018-03-30T10:54:42.193Z,52.41
2018-03-30T10:57:46.387Z,50.77
2018-03-30T11:00:49.715Z,52.31
2018-03-30T11:03:53.077Z,49.58
2018-03-30T11:06:57.104Z,48.03
2018-03-30T11:10:00.641Z,48.69
2018-03-30T11:13:04.268Z,49.67
2018-03-30T11:16:08.301Z,49.13
2018-03-30T11:19:12.354Z,50.16
2018-03-30T11:22:15.630Z,52.39
2018-03-30T11:25:19.000Z,50.57
2018-03-30T11:28:23.113Z,49.64
2018-03-30T11:31:27.568Z,50.65
2018-03-30T11:34:30.854Z,49.75
2018-03-30T11:37:34.166Z,50.35
2018-03-30T11:40:37.999Z,48.94
2018-03-30T11:43:41.277Z,48.64
2018-03-30T11:46:44.568Z,47.06
2018-03-30T11:49:47.854Z,50.29
2018-03-30T11:52:51.132Z,50.20
2018-03-30T11:55:54.465Z,50.34
2018-03-30T11:58:57.742Z,50.95
2018-03-30T12:02:01.801Z,50.15
2018-03-30T12:05:05.084Z,48.53
2018-03-30T12:08:08.380Z,48.45
2018-03-30T12:11:11.665Z,48.28
2018-03-30T12:14:15.041Z,47.03
2018-03-30T12:17:19.141Z,45.02
2018-03-30T12:20:22.410Z,46.31
2018-03-30T12:23:25.714Z,47.16
2018-03-30T12:26:28.998Z,46.93
2018-03-30T12:29:32.277Z,48.66
2018-03-30T12:32:36.322Z,48.16
2018-03-30T12:35:39.624Z,48.58
2018-03-30T12:38:42.896Z,49.19
2018-03-30T12:41:46.186Z,49.18
2018-03-30T12:44:49.487Z,48.75
2018-03-30T12:47:52.768Z,49.61
2018-03-30T12:50:56.159Z,48.86
2018-03-30T12:54:00.207Z,48.22
2018-03-30T12:57:03.486Z,48.04
2018-03-30T13:00:07.528Z,49.27
2018-03-30T13:03:16.546Z,48.75
2018-03-30T13:06:19.976Z,48.78
2018-03-30T13:09:23.250Z,47.03
2018-03-30T13:12:30.706Z,46.07
2018-03-30T13:15:34.775Z,46.47
2018-03-30T13:18:38.133Z,46.59
2018-03-30T13:21:42.255Z,45.89
2018-03-30T13:24:46.705Z,45.89
2018-03-30T13:27:50.082Z,45.49
2018-03-30T13:30:53.370Z,44.47
2018-03-30T13:33:57.626Z,44.45
2018-03-30T13:37:01.007Z,45.39
2018-03-30T13:40:04.507Z,44.92
2018-03-30T13:43:07.897Z,45.87
2018-03-30T13:46:11.240Z,46.66
2018-03-30T13:49:14.586Z,46.91
2018-03-30T13:52:28.389Z,47.61
2018-03-30T13:55:33.490Z,47.85
2018-03-30T13:58:52.559Z,47.60
2018-03-30T14:01:58.534Z,46.67
2018-03-30T14:05:06.636Z,47.29
2018-03-30T14:08:21.169Z,49.05
2018-03-30T14:11:26.110Z,49.55
2018-03-30T14:14:31.067Z,50.28
2018-03-30T14:17:39.693Z,49.64
2018-03-30T14:20:45.705Z,49.89
2018-03-30T14:23:50.942Z,50.81
2018-03-30T14:26:56.167Z,51.33
2018-03-30T14:30:21.083Z,51.30
2018-03-30T14:33:29.033Z,51.03
2018-03-30T14:40:20.056Z,49.91
2018-03-30T14:43:26.286Z,51.14
2018-03-30T14:47:06.029Z,50.10
2018-03-30T14:50:23.029Z,50.14
2018-03-30T14:53:32.446Z,50.71
2018-03-30T14:56:41.033Z,50.85
2018-03-30T14:59:49.615Z,50.32
2018-03-30T15:02:55.760Z,50.04
2018-03-30T15:06:12.278Z,50.70
2018-03-30T15:09:26.131Z,51.15
2018-03-30T15:16:14.776Z,50.89
2018-03-30T15:19:19.634Z,51.03
2018-03-30T15:22:27.369Z,51.11
2018-03-30T15:25:44.883Z,51.69
2018-03-30T15:28:53.710Z,52.03
2018-03-30T15:32:08.282Z,51.41
2018-03-30T15:35:13.393Z,51.65
2018-03-30T15:38:16.718Z,51.90
2018-03-30T15:41:20.010Z,52.03
2018-03-30T15:44:23.281Z,51.33
2018-03-30T15:47:26.672Z,52.27
2018-03-30T15:50:31.945Z,52.28
2018-03-30T15:53:34.501Z,51.96
2018-03-30T16:00:11.109Z,52.17
2018-03-30T16:03:14.396Z,52.69
2018-03-30T16:06:17.685Z,52.76
2018-03-30T16:09:25.093Z,53.16
2018-03-30T16:12:30.033Z,53.83
2018-03-30T16:15:33.313Z,53.44
2018-03-30T16:22:09.564Z,53.89
2018-03-30T16:25:12.842Z,54.70
2018-03-30T16:28:15.350Z,54.08
2018-03-30T16:31:17.842Z,54.59
2018-03-30T16:34:22.370Z,54.75
2018-03-30T16:37:25.657Z,54.51
2018-03-30T16:40:28.144Z,54.75
2018-03-30T16:43:31.401Z,54.16
2018-03-30T16:46:45.526Z,54.63
2018-03-30T16:49:48.833Z,54.48
2018-03-30T16:52:51.339Z,55.26
2018-03-30T16:55:53.829Z,55.61
2018-03-30T16:58:56.338Z,56.36
2018-03-30T17:01:59.863Z,56.63
2018-03-30T17:05:02.520Z,57.00
2018-03-30T17:08:05.789Z,57.76
2018-03-30T17:11:08.297Z,57.63
2018-03-30T17:14:11.550Z,57.96
2018-03-30T17:17:14.131Z,58.33
2018-03-30T17:20:17.432Z,58.41
2018-03-30T17:23:19.917Z,58.95
2018-03-30T17:26:22.408Z,58.84
2018-03-30T17:29:24.929Z,59.41
2018-03-30T17:32:27.412Z,59.81
2018-03-30T17:35:30.848Z,60.04
2018-03-30T17:38:33.337Z,60.74
2018-03-30T17:41:35.830Z,61.16
2018-03-30T17:44:38.317Z,61.73
2018-03-30T17:47:41.868Z,62.48
2018-03-30T17:50:44.711Z,63.28
2018-03-30T17:53:47.970Z,63.54
2018-03-30T17:56:50.455Z,63.71
2018-03-30T17:59:53.756Z,64.25
2018-03-30T18:02:56.293Z,65.46
2018-03-30T18:05:58.802Z,65.75
2018-03-30T18:09:01.362Z,66.11
2018-03-30T18:12:03.833Z,65.93
2018-03-30T18:15:06.342Z,66.19
2018-03-30T18:18:11.345Z,66.19
2018-03-30T18:21:14.353Z,66.39
2018-03-30T18:24:18.130Z,66.79
2018-03-30T18:27:20.604Z,67.21
2018-03-30T18:30:23.113Z,67.62
2018-03-30T18:33:25.598Z,67.69
2018-03-30T18:36:28.176Z,67.75
2018-03-30T18:39:32.322Z,67.97
2018-03-30T18:42:34.874Z,67.89
2018-03-30T18:45:37.354Z,68.04
2018-03-30T18:48:39.845Z,68.55
2018-03-30T18:51:42.330Z,68.57
2018-03-30T18:54:44.848Z,68.96
2018-03-30T18:57:47.336Z,69.23
2018-03-30T19:00:49.883Z,69.28
2018-03-30T19:03:52.425Z,69.47
2018-03-30T19:06:54.933Z,70.00
2018-03-30T19:09:57.433Z,70.24
2018-03-30T19:13:00.146Z,70.31
2018-03-30T19:16:03.174Z,70.50
2018-03-30T19:19:05.715Z,70.37
2018-03-30T19:22:08.234Z,70.38
2018-03-30T19:25:10.710Z,70.37
2018-03-30T19:28:13.597Z,70.78
2018-03-30T19:31:16.689Z,71.25
2018-03-30T19:34:19.202Z,71.44
2018-03-30T19:37:21.705Z,71.67
2018-03-30T19:40:24.181Z,71.58
2018-03-30T19:43:26.690Z,71.49
2018-03-30T19:46:29.987Z,71.45
2018-03-30T19:49:33.225Z,71.37
2018-03-30T19:52:35.694Z,71.49
2018-03-30T19:55:38.177Z,71.32
2018-03-30T19:58:40.648Z,71.31
2018-03-30T20:01:43.128Z,71.12
2018-03-30T20:04:45.606Z,71.42
2018-03-30T20:07:48.113Z,71.44
2018-03-30T20:10:50.636Z,71.38
2018-03-30T20:13:53.915Z,71.42
2018-03-30T20:16:56.410Z,71.57
2018-03-30T20:19:58.894Z,71.52
2018-03-30T20:23:02.205Z,71.72
2018-03-30T20:26:04.687Z,71.85
2018-03-30T20:29:07.221Z,72.12
2018-03-30T20:32:09.710Z,72.55
2018-03-30T20:35:13.027Z,72.68
2018-03-30T20:38:16.271Z,73.38
2018-03-30T20:41:18.746Z,73.80
2018-03-30T20:44:21.233Z,73.68
2018-03-30T20:47:23.738Z,73.50
2018-03-30T20:50:26.217Z,73.44
2018-03-30T20:53:28.717Z,73.40
2018-03-30T20:56:32.180Z,73.01
2018-03-30T20:59:36.254Z,72.41
2018-03-30T21:02:38.753Z,72.21
2018-03-30T21:05:41.249Z,71.18
2018-03-30T21:08:43.729Z,70.59
2018-03-30T21:11:47.534Z,70.61
2018-03-30T21:14:50.194Z,70.24
2018-03-30T21:17:52.707Z,70.08
2018-03-30T21:20:55.217Z,70.06
2018-03-30T21:23:58.090Z,70.32
2018-03-30T21:27:01.526Z,71.22
2018-03-30T21:33:15.729Z,71.06
2018-03-30T21:36:18.206Z,71.19
2018-03-30T21:39:20.799Z,71.54
2018-03-30T21:42:23.367Z,72.11
2018-03-30T21:45:26.342Z,73.01
2018-03-30T21:48:30.638Z,73.38
2018-03-30T21:51:33.157Z,73.59
2018-03-30T21:54:35.631Z,73.73
2018-03-30T21:57:38.908Z,74.09
2018-03-30T22:00:44.732Z,74.78
2018-03-30T22:03:48.294Z,75.16
2018-03-30T22:06:52.739Z,74.58
2018-03-30T22:09:55.337Z,74.69
2018-03-30T22:12:57.894Z,74.58
2018-03-30T22:16:11.148Z,74.61
2018-03-30T22:19:29.519Z,74.26
2018-03-30T22:22:34.487Z,74.17
2018-03-30T22:25:37.757Z,74.41
2018-03-30T22:28:40.349Z,74.26
2018-03-30T22:31:42.833Z,74.01
2018-03-30T22:34:45.347Z,73.79
2018-03-30T22:37:47.850Z,73.98
2018-03-30T22:40:50.361Z,74.11
2018-03-30T22:43:52.852Z,74.29
2018-03-30T22:46:55.333Z,74.39
2018-03-30T22:49:57.917Z,74.59
2018-03-30T22:53:00.392Z,74.79
2018-03-30T22:56:03.476Z,74.80
2018-03-30T22:59:05.957Z,74.93
2018-03-30T23:02:09.982Z,74.90
2018-03-30T23:05:12.465Z,74.81
2018-03-30T23:08:14.939Z,74.57
2018-03-30T23:11:17.426Z,74.40
2018-03-30T23:14:19.901Z,74.27
2018-03-30T23:17:23.175Z,74.06
2018-03-30T23:20:25.667Z,73.77
2018-03-30T23:23:28.182Z,73.91
2018-03-30T23:26:31.444Z,73.63
2018-03-30T23:29:33.929Z,73.79
2018-03-30T23:32:37.196Z,73.81
2018-03-30T23:35:39.691Z,73.98
2018-03-30T23:38:42.179Z,74.25
2018-03-30T23:41:44.658Z,74.45
2018-03-30T23:44:47.130Z,74.67
2018-03-30T23:47:49.604Z,75.04
2018-03-30T23:50:52.097Z,75.44
2018-03-30T23:53:54.589Z,75.46
2018-03-30T23:56:57.105Z,74.75
2018-03-30T23:59:59.618Z,74.95
